createdAt,value
2019-04-11T00:01:33.898Z,11.12
2019-04-11T00:03:29.231Z,10.13
2019-04-11T00:05:33.020Z,12.20
2019-04-11T00:07:36.724Z,11.18
2019-04-11T00:09:40.860Z,12.53
2019-04-11T00:11:44.594Z,24.77
2019-04-11T00:13:49.407Z,16.60
2019-04-11T00:15:53.052Z,12.37
2019-04-11T00:17:56.739Z,12.70
2019-04-11T00:20:00.598Z,9.85
2019-04-11T00:22:05.582Z,10.05
2019-04-11T00:24:10.397Z,14.98
2019-04-11T00:26:14.319Z,10.18
2019-04-11T00:28:17.900Z,10.05
2019-04-11T00:30:21.983Z,10.53
2019-04-11T00:32:25.832Z,10.20
2019-04-11T00:34:29.392Z,11.43
2019-04-11T00:36:33.050Z,9.90
2019-04-11T00:38:36.624Z,10.38
2019-04-11T00:40:41.524Z,9.80
2019-04-11T00:42:45.249Z,9.58
2019-04-11T00:44:49.549Z,9.40
2019-04-11T00:46:53.268Z,9.65
2019-04-11T00:48:57.709Z,9.35
2019-04-11T00:51:01.527Z,9.98
2019-04-11T00:53:05.588Z,9.75
2019-04-11T00:55:09.802Z,10.23
2019-04-11T00:57:14.812Z,9.98
2019-04-11T00:59:18.488Z,9.78
2019-04-11T01:01:22.186Z,9.83
2019-04-11T01:03:26.402Z,13.10
2019-04-11T01:05:30.202Z,9.10
2019-04-11T01:07:33.797Z,9.25
2019-04-11T01:09:37.368Z,9.53
2019-04-11T01:11:41.000Z,9.73
2019-04-11T01:13:50.896Z,9.33
2019-04-11T01:16:00.746Z,9.23
2019-04-11T01:18:05.502Z,9.93
2019-04-11T01:20:09.816Z,9.85
2019-04-11T01:22:14.021Z,9.35
2019-04-11T01:24:17.966Z,9.95
2019-04-11T01:26:21.532Z,9.73
2019-04-11T01:28:25.160Z,9.85
2019-04-11T01:30:37.053Z,9.83
2019-04-11T01:32:40.800Z,9.83
2019-04-11T01:34:44.604Z,9.78
2019-04-11T01:36:48.321Z,9.35
2019-04-11T01:38:54.709Z,10.55
2019-04-11T01:40:58.298Z,10.53
2019-04-11T01:43:01.972Z,10.70
2019-04-11T01:45:07.472Z,9.95
2019-04-11T01:47:12.959Z,10.88
2019-04-11T01:49:21.834Z,10.23
2019-04-11T01:51:25.527Z,10.03
2019-04-11T01:53:29.084Z,10.88
2019-04-11T01:55:32.666Z,10.40
2019-04-11T01:57:36.416Z,9.98
2019-04-11T01:59:40.079Z,11.33
2019-04-11T02:01:51.065Z,11.28
2019-04-11T02:04:05.820Z,11.80
2019-04-11T02:06:09.758Z,10.82
2019-04-11T02:08:13.377Z,11.43
2019-04-11T02:10:16.961Z,11.57
2019-04-11T02:12:20.851Z,11.40
2019-04-11T02:14:24.440Z,12.00
2019-04-11T02:16:29.259Z,12.63
2019-04-11T02:18:32.976Z,13.08
2019-04-11T02:20:36.906Z,13.62
2019-04-11T02:22:42.423Z,13.50
2019-04-11T02:24:48.012Z,13.22
2019-04-11T02:26:59.133Z,13.45
2019-04-11T02:29:03.481Z,13.43
2019-04-11T02:31:09.679Z,14.13
2019-04-11T02:33:14.143Z,14.58
2019-04-11T02:35:19.869Z,13.25
2019-04-11T02:37:24.263Z,14.75
2019-04-11T02:39:30.838Z,13.85
2019-04-11T02:41:35.329Z,14.03
2019-04-11T02:43:41.848Z,15.25
2019-04-11T02:45:55.627Z,14.75
2019-04-11T02:47:51.735Z,14.13
2019-04-11T02:49:55.224Z,15.20
2019-04-11T02:52:00.640Z,14.65
2019-04-11T02:54:06.657Z,15.30
2019-04-11T02:56:11.723Z,14.93
2019-04-11T02:58:16.166Z,15.60
2019-04-11T03:00:20.552Z,15.23
2019-04-11T03:02:26.626Z,14.95
2019-04-11T03:04:31.030Z,14.50
2019-04-11T03:06:35.615Z,14.50
2019-04-11T03:08:41.043Z,14.15
2019-04-11T03:10:45.957Z,14.05
2019-04-11T03:12:50.028Z,14.53
2019-04-11T03:15:12.597Z,13.68
2019-04-11T03:17:09.995Z,13.65
2019-04-11T03:19:18.411Z,13.30
2019-04-11T03:21:14.501Z,13.58
2019-04-11T03:23:19.294Z,14.83
2019-04-11T03:25:22.530Z,14.75
2019-04-11T03:27:28.814Z,17.40
2019-04-11T03:29:35.076Z,15.65
2019-04-11T03:34:25.095Z,13.83
2019-04-11T03:36:37.484Z,14.93
2019-04-11T03:38:18.856Z,14.90
2019-04-11T03:40:22.390Z,16.15
2019-04-11T03:42:20.578Z,14.55
2019-04-11T03:44:20.559Z,14.18
2019-04-11T03:46:34.006Z,15.63
2019-04-11T03:48:33.309Z,15.13
2019-04-11T03:50:30.530Z,15.65
2019-04-11T03:52:32.793Z,16.02
2019-04-11T03:54:40.137Z,15.25
2019-04-11T03:56:43.263Z,16.65
2019-04-11T03:58:48.293Z,16.15
2019-04-11T04:00:55.170Z,16.65
2019-04-11T04:03:00.184Z,14.98
2019-04-11T04:05:06.081Z,15.83
2019-04-11T04:07:12.382Z,14.63
2019-04-11T04:09:16.385Z,15.28
2019-04-11T04:11:24.264Z,15.80
2019-04-11T04:13:30.167Z,14.53
2019-04-11T04:15:55.585Z,14.55
2019-04-11T04:17:52.023Z,14.40
2019-04-11T04:20:15.155Z,14.65
2019-04-11T04:22:32.544Z,14.87
2019-04-11T04:24:40.030Z,15.43
2019-04-11T04:26:43.150Z,14.90
2019-04-11T04:28:47.548Z,14.73
2019-04-11T04:30:51.941Z,13.35
2019-04-11T04:32:57.364Z,14.53
2019-04-11T04:35:01.698Z,14.28
2019-04-11T04:37:06.329Z,13.90
2019-04-11T04:39:12.466Z,15.35
2019-04-11T04:41:29.748Z,14.07
2019-04-11T04:43:24.937Z,13.60
2019-04-11T04:45:30.044Z,13.90
2019-04-11T04:47:42.795Z,14.18
2019-04-11T04:49:40.732Z,13.43
2019-04-11T04:51:45.710Z,15.03
2019-04-11T04:53:50.198Z,14.53
2019-04-11T04:55:54.356Z,14.58
2019-04-11T04:57:59.685Z,14.50
2019-04-11T05:00:06.617Z,14.13
2019-04-11T05:02:10.993Z,14.13
2019-04-11T05:04:15.782Z,14.87
2019-04-11T05:06:20.642Z,15.20
2019-04-11T05:08:24.994Z,15.60
2019-04-11T05:10:30.443Z,14.93
2019-04-11T05:12:34.603Z,14.63
2019-04-11T05:14:39.358Z,15.93
2019-04-11T05:16:44.176Z,14.80
2019-04-11T05:18:48.470Z,16.00
2019-04-11T05:20:52.772Z,14.75
2019-04-11T05:22:56.521Z,15.80
2019-04-11T05:25:01.881Z,15.43
2019-04-11T05:27:06.268Z,17.23
2019-04-11T05:29:11.129Z,15.20
2019-04-11T05:31:14.747Z,14.98
2019-04-11T05:33:18.344Z,16.17
2019-04-11T05:35:22.793Z,16.30
2019-04-11T05:37:26.951Z,16.20
2019-04-11T05:39:31.623Z,16.17
2019-04-11T05:41:35.473Z,18.55
2019-04-11T05:43:41.291Z,16.42
2019-04-11T05:45:44.369Z,17.77
2019-04-11T05:47:50.873Z,16.02
2019-04-11T05:49:55.273Z,16.02
2019-04-11T05:52:00.843Z,15.88
2019-04-11T05:54:07.659Z,16.00
2019-04-11T05:56:11.248Z,15.38
2019-04-11T05:58:15.973Z,16.73
2019-04-11T06:00:24.184Z,16.85
2019-04-11T06:02:33.117Z,21.07
2019-04-11T06:04:38.561Z,21.33
2019-04-11T06:06:44.339Z,15.20
2019-04-11T06:08:49.337Z,15.58
2019-04-11T06:11:16.494Z,15.95
2019-04-11T06:13:38.138Z,14.45
2019-04-11T06:15:47.234Z,15.53
2019-04-11T06:17:51.636Z,15.05
2019-04-11T06:20:14.338Z,13.45
2019-04-11T06:22:19.817Z,14.55
2019-04-11T06:24:28.002Z,14.40
2019-04-11T06:26:45.146Z,13.78
2019-04-11T06:28:53.676Z,14.50
2019-04-11T06:31:13.813Z,13.83
2019-04-11T06:33:28.862Z,13.80
2019-04-11T06:35:34.173Z,13.48
2019-04-11T06:37:52.195Z,15.35
2019-04-11T06:40:00.857Z,14.53
2019-04-11T06:42:25.430Z,13.00
2019-04-11T06:44:37.547Z,14.60
2019-04-11T06:46:53.929Z,12.98
2019-04-11T06:48:49.806Z,13.88
2019-04-11T06:51:03.936Z,13.85
2019-04-11T06:53:08.869Z,13.38
2019-04-11T06:55:14.868Z,13.72
2019-04-11T06:57:20.126Z,13.93
2019-04-11T06:59:32.363Z,12.85
2019-04-11T07:01:36.268Z,13.08
2019-04-11T07:03:47.245Z,12.95
2019-04-11T07:05:51.079Z,12.82
2019-04-11T07:07:56.359Z,12.60
2019-04-11T07:10:02.111Z,11.43
2019-04-11T07:12:10.048Z,13.55
2019-04-11T07:14:15.267Z,12.58
2019-04-11T07:16:19.911Z,12.00
2019-04-11T07:18:41.629Z,12.43
2019-04-11T07:20:52.588Z,13.13
2019-04-11T07:23:13.789Z,11.50
2019-04-11T07:25:35.425Z,11.68
2019-04-11T07:27:40.885Z,12.60
2019-04-11T07:30:03.179Z,12.35
2019-04-11T07:32:09.397Z,11.75
2019-04-11T07:34:24.241Z,11.48
2019-04-11T07:36:46.248Z,11.73
2019-04-11T07:38:57.260Z,11.80
2019-04-11T07:41:19.593Z,11.00
2019-04-11T07:43:23.342Z,12.53
2019-04-11T07:45:29.700Z,12.90
2019-04-11T07:47:46.279Z,11.63
2019-04-11T07:49:54.903Z,12.07
2019-04-11T07:52:02.497Z,12.18
2019-04-11T07:54:09.377Z,11.20
2019-04-11T07:56:16.531Z,11.38
2019-04-11T07:58:21.678Z,12.37
2019-04-11T08:00:38.572Z,11.70
2019-04-11T08:02:50.389Z,11.68
2019-04-11T08:04:58.653Z,12.75
2019-04-11T08:07:20.582Z,13.25
2019-04-11T08:09:26.769Z,12.53
2019-04-11T08:11:32.133Z,11.85
2019-04-11T08:13:37.436Z,11.80
2019-04-11T08:15:51.921Z,11.00
2019-04-11T08:17:56.468Z,10.63
2019-04-11T08:20:13.841Z,10.23
2019-04-11T08:22:35.547Z,12.85
2019-04-11T08:24:46.871Z,11.00
2019-04-11T08:27:07.565Z,10.75
2019-04-11T08:29:14.040Z,11.38
2019-04-11T08:31:21.571Z,11.45
2019-04-11T08:33:26.851Z,12.93
2019-04-11T08:35:37.976Z,10.82
2019-04-11T08:37:55.999Z,10.28
2019-04-11T08:39:59.725Z,11.10
2019-04-11T08:42:14.926Z,10.88
2019-04-11T08:44:19.498Z,11.55
2019-04-11T08:46:35.036Z,11.25
2019-04-11T08:48:44.132Z,11.83
2019-04-11T08:50:55.692Z,10.93
2019-04-11T08:53:13.070Z,11.15
2019-04-11T08:55:18.998Z,11.30
2019-04-11T08:57:30.142Z,11.95
2019-04-11T08:59:41.787Z,12.95
2019-04-11T09:01:46.012Z,11.68
2019-04-11T09:04:12.105Z,11.30
2019-04-11T09:06:16.737Z,11.80
2019-04-11T09:08:38.456Z,11.73
2019-04-11T09:11:00.184Z,11.50
2019-04-11T09:13:09.058Z,11.10
2019-04-11T09:15:31.024Z,11.50
2019-04-11T09:17:39.311Z,12.18
2019-04-11T09:20:01.142Z,12.28
2019-04-11T09:22:10.910Z,12.00
2019-04-11T09:24:34.650Z,14.35
2019-04-11T09:26:42.766Z,12.55
2019-04-11T09:28:46.340Z,12.15
2019-04-11T09:33:33.109Z,12.93
2019-04-11T09:35:41.645Z,12.63
2019-04-11T09:37:46.265Z,12.13
2019-04-11T09:39:55.232Z,11.85
2019-04-11T09:42:13.442Z,11.68
2019-04-11T09:44:18.728Z,12.30
2019-04-11T09:46:27.225Z,12.75
2019-04-11T09:48:35.639Z,12.33
2019-04-11T09:50:53.250Z,12.30
2019-04-11T09:52:58.608Z,12.68
2019-04-11T09:55:16.860Z,13.25
2019-04-11T09:57:25.138Z,13.22
2019-04-11T09:59:31.463Z,13.78
2019-04-11T10:01:53.991Z,14.78
2019-04-11T10:03:57.689Z,13.50
2019-04-11T10:06:05.454Z,13.08
2019-04-11T10:08:16.966Z,14.00
2019-04-11T10:10:28.937Z,13.68
2019-04-11T10:12:40.542Z,12.03
2019-04-11T10:14:46.033Z,13.28
2019-04-11T10:17:08.684Z,12.55
2019-04-11T10:19:14.147Z,13.00
2019-04-11T10:21:19.435Z,13.35
2019-04-11T10:23:25.044Z,13.45
2019-04-11T10:25:31.923Z,12.55
2019-04-11T10:27:40.646Z,13.22
2019-04-11T10:30:02.035Z,13.40
2019-04-11T10:32:07.262Z,15.08
2019-04-11T10:34:15.362Z,13.75
2019-04-11T10:36:21.076Z,13.75
2019-04-11T10:38:24.638Z,13.25
2019-04-11T10:42:36.844Z,12.85
2019-04-11T10:44:47.896Z,13.78
2019-04-11T10:46:55.821Z,15.48
2019-04-11T10:49:01.217Z,14.78
2019-04-11T10:51:09.233Z,14.10
2019-04-11T10:53:13.072Z,13.53
2019-04-11T10:55:18.348Z,14.05
2019-04-11T10:57:32.965Z,12.90
2019-04-11T10:59:41.132Z,12.23
2019-04-11T11:01:58.411Z,12.03
2019-04-11T11:04:07.386Z,13.20
2019-04-11T11:06:13.613Z,12.43
2019-04-11T11:08:29.058Z,12.43
2019-04-11T11:10:37.574Z,12.98
2019-04-11T11:12:43.518Z,12.88
2019-04-11T11:15:05.176Z,13.45
2019-04-11T11:17:39.004Z,12.63
2019-04-11T11:19:50.068Z,13.13
2019-04-11T11:21:47.101Z,13.40
2019-04-11T11:24:09.231Z,17.20
2019-04-11T11:26:19.769Z,14.53
2019-04-11T11:28:23.694Z,15.13
2019-04-11T11:30:29.588Z,53.33
2019-04-11T11:32:33.601Z,35.75
2019-04-11T11:34:49.307Z,35.68
2019-04-11T11:36:55.006Z,28.92
2019-04-11T11:39:17.452Z,13.98
2019-04-11T11:41:40.543Z,13.28
2019-04-11T11:43:45.382Z,14.58
2019-04-11T11:46:07.198Z,45.85
2019-04-11T11:48:20.785Z,32.28
2019-04-11T11:50:26.652Z,14.23
2019-04-11T11:52:37.599Z,12.45
2019-04-11T11:54:43.986Z,15.32
2019-04-11T11:56:48.931Z,14.33
2019-04-11T11:59:11.248Z,13.75
2019-04-11T12:01:19.854Z,13.08
2019-04-11T12:03:29.164Z,11.90
2019-04-11T12:05:32.719Z,12.98
2019-04-11T12:07:39.349Z,11.88
2019-04-11T12:10:00.944Z,11.20
2019-04-11T12:12:06.474Z,11.10
2019-04-11T12:14:15.838Z,12.35
2019-04-11T12:16:22.084Z,14.10
2019-04-11T12:18:47.164Z,12.15
2019-04-11T12:20:49.689Z,11.68
2019-04-11T12:22:53.732Z,10.75
2019-04-11T12:25:16.802Z,11.70
2019-04-11T12:27:40.040Z,11.68
2019-04-11T12:29:50.461Z,11.88
2019-04-11T12:31:59.604Z,11.45
2019-04-11T12:34:12.259Z,11.48
2019-04-11T12:36:18.747Z,11.93
2019-04-11T12:38:26.818Z,12.18
2019-04-11T12:40:48.528Z,19.00
2019-04-11T12:42:52.370Z,11.18
2019-04-11T12:45:14.211Z,10.78
2019-04-11T12:47:22.888Z,27.27
2019-04-11T12:49:28.236Z,18.65
2019-04-11T12:51:39.562Z,16.50
2019-04-11T12:53:43.269Z,12.03
2019-04-11T12:55:54.289Z,10.80
2019-04-11T12:58:15.833Z,11.28
2019-04-11T13:00:21.208Z,11.45
2019-04-11T13:02:29.225Z,10.53
2019-04-11T13:04:32.839Z,11.68
2019-04-11T13:09:01.304Z,10.55
2019-04-11T13:11:05.632Z,10.30
2019-04-11T13:13:27.440Z,12.98
2019-04-11T13:15:38.408Z,11.00
2019-04-11T13:17:43.685Z,10.20
2019-04-11T13:20:04.574Z,10.60
2019-04-11T13:22:04.899Z,14.43
2019-04-11T13:24:26.516Z,12.13
2019-04-11T13:26:34.606Z,10.95
2019-04-11T13:28:38.752Z,10.98
2019-04-11T13:30:57.713Z,10.35
2019-04-11T13:33:01.374Z,10.50
2019-04-11T13:37:28.654Z,9.95
2019-04-11T13:39:33.242Z,10.08
2019-04-11T13:41:56.607Z,10.30
2019-04-11T13:44:01.240Z,10.72
2019-04-11T13:46:09.256Z,9.78
2019-04-11T13:48:14.475Z,9.40
2019-04-11T13:50:18.776Z,9.50
2019-04-11T13:52:33.055Z,8.83
2019-04-11T13:54:54.390Z,9.98
2019-04-11T13:56:59.637Z,10.82
2019-04-11T13:59:21.177Z,9.78
2019-04-11T14:01:24.951Z,9.85
2019-04-11T14:03:48.423Z,9.85
2019-04-11T14:05:52.080Z,9.97
2019-04-11T14:07:57.053Z,10.40
2019-04-11T14:10:02.517Z,9.90
2019-04-11T14:12:08.488Z,9.90
2019-04-11T14:14:13.790Z,9.68
2019-04-11T14:16:24.510Z,8.58
2019-04-11T14:18:29.880Z,9.70
2019-04-11T14:20:41.774Z,9.48
2019-04-11T14:22:45.035Z,9.53
2019-04-11T14:25:02.410Z,10.20
2019-04-11T14:27:07.764Z,10.25
2019-04-11T14:29:13.052Z,9.98
2019-04-11T14:31:21.810Z,9.28
2019-04-11T14:33:27.189Z,8.50
2019-04-11T14:35:44.648Z,9.15
2019-04-11T14:37:49.802Z,9.73
2019-04-11T14:39:57.849Z,9.65
2019-04-11T14:42:03.198Z,9.93
2019-04-11T14:44:06.757Z,12.07
2019-04-11T14:48:40.095Z,8.90
2019-04-11T14:50:57.844Z,9.05
2019-04-11T14:53:08.918Z,9.15
2019-04-11T14:55:12.584Z,9.28
2019-04-11T14:57:34.234Z,9.30
2019-04-11T14:59:45.049Z,9.33
2019-04-11T15:01:50.280Z,8.80
2019-04-11T15:04:13.603Z,10.38
2019-04-11T15:06:18.917Z,9.23
2019-04-11T15:08:24.138Z,8.75
2019-04-11T15:10:38.564Z,9.38
2019-04-11T15:12:42.148Z,9.43
2019-04-11T15:17:08.813Z,9.28
2019-04-11T15:19:13.082Z,8.90
2019-04-11T15:21:18.538Z,9.53
2019-04-11T15:23:23.706Z,9.40
2019-04-11T15:25:28.997Z,10.10
2019-04-11T15:27:50.555Z,11.00
2019-04-11T15:29:55.777Z,13.03
2019-04-11T15:32:17.569Z,32.13
2019-04-11T15:34:31.874Z,18.20
2019-04-11T15:36:39.738Z,11.73
2019-04-11T15:38:43.966Z,8.88
2019-04-11T15:40:48.517Z,9.33
2019-04-11T15:42:53.749Z,9.90
2019-04-11T15:44:59.020Z,9.93
2019-04-11T15:47:13.199Z,9.95
2019-04-11T15:49:31.155Z,10.78
2019-04-11T15:51:37.023Z,11.40
2019-04-11T15:53:48.201Z,10.00
2019-04-11T15:56:10.028Z,8.78
2019-04-11T15:58:13.648Z,10.32
2019-04-11T16:00:28.180Z,8.78
2019-04-11T16:02:33.459Z,9.43
2019-04-11T16:04:38.645Z,14.33
2019-04-11T16:06:46.293Z,13.18
2019-04-11T16:08:49.862Z,14.73
2019-04-11T16:13:18.533Z,23.12
2019-04-11T16:15:23.766Z,18.57
2019-04-11T16:17:34.799Z,35.90
2019-04-11T16:19:52.425Z,17.92
2019-04-11T16:22:03.413Z,12.68
2019-04-11T16:24:14.442Z,17.80
2019-04-11T16:26:22.743Z,23.57
2019-04-11T16:28:44.435Z,21.55
2019-04-11T16:30:49.826Z,21.05
2019-04-11T16:33:04.160Z,23.50
2019-04-11T16:35:18.886Z,19.62
2019-04-11T16:37:22.610Z,12.75
2019-04-11T16:39:33.762Z,19.25
2019-04-11T16:41:55.399Z,14.95
2019-04-11T16:44:18.411Z,15.50
2019-04-11T16:46:41.754Z,20.60
2019-04-11T16:48:45.329Z,11.57
2019-04-11T16:52:51.909Z,19.92
2019-04-11T16:54:55.486Z,15.20
2019-04-11T16:59:01.894Z,10.43
2019-04-11T17:03:08.308Z,16.00
2019-04-11T17:07:19.117Z,11.83
2019-04-11T17:09:33.581Z,11.73
2019-04-11T17:11:37.225Z,10.25
2019-04-11T17:13:40.977Z,10.85
2019-04-11T17:15:44.533Z,9.38
2019-04-11T17:19:50.939Z,11.28
2019-04-11T17:23:57.317Z,9.93
2019-04-11T17:28:03.803Z,11.20
2019-04-11T17:30:07.720Z,17.27
2019-04-11T17:32:13.765Z,13.38
2019-04-11T17:34:16.513Z,10.75
2019-04-11T17:38:22.918Z,13.40
2019-04-11T17:42:29.318Z,12.60
2019-04-11T17:46:35.872Z,9.83
2019-04-11T17:48:39.465Z,10.70
2019-04-11T17:52:46.112Z,15.13
2019-04-11T17:54:51.956Z,17.70
2019-04-11T17:56:58.758Z,17.32
2019-04-11T17:59:00.307Z,13.75
2019-04-11T18:03:11.754Z,15.10
2019-04-11T18:05:17.153Z,14.33
2019-04-11T18:07:20.172Z,20.08
2019-04-11T18:11:28.318Z,24.57
2019-04-11T18:13:31.981Z,14.85
2019-04-11T18:15:35.656Z,31.52
2019-04-11T18:17:39.294Z,13.43
2019-04-11T18:19:42.911Z,11.73
2019-04-11T18:21:46.549Z,14.83
2019-04-11T18:23:50.694Z,12.47
2019-04-11T18:25:54.490Z,14.18
2019-04-11T18:27:58.395Z,13.22
2019-04-11T18:30:01.989Z,11.70
2019-04-11T18:32:07.327Z,15.13
2019-04-11T18:34:11.041Z,12.05
2019-04-11T18:36:14.715Z,13.10
2019-04-11T18:38:18.313Z,11.60
2019-04-11T18:42:25.252Z,10.43
2019-04-11T18:46:31.763Z,9.90
2019-04-11T18:48:35.484Z,11.43
2019-04-11T18:50:39.234Z,10.70
2019-04-11T18:52:42.911Z,10.25
2019-04-11T18:54:46.555Z,13.50
2019-04-11T18:56:50.192Z,14.30
2019-04-11T18:58:56.835Z,12.05
2019-04-11T19:01:00.623Z,12.43
2019-04-11T19:03:04.342Z,11.18
2019-04-11T19:05:08.162Z,13.25
2019-04-11T19:07:13.318Z,10.13
2019-04-11T19:09:19.150Z,10.90
2019-04-11T19:11:22.727Z,11.93
2019-04-11T19:15:29.319Z,11.33
2019-04-11T19:17:32.889Z,10.72
2019-04-11T19:21:39.424Z,10.58
2019-04-11T19:23:43.026Z,9.98
2019-04-11T19:25:46.697Z,9.95
2019-04-11T19:27:53.973Z,10.88
2019-04-11T19:29:56.483Z,10.60
2019-04-11T19:32:00.213Z,10.23
2019-04-11T19:36:09.990Z,11.22
2019-04-11T19:38:24.065Z,10.93
2019-04-11T19:40:30.275Z,12.75
2019-04-11T19:42:33.995Z,10.98
2019-04-11T19:44:37.641Z,10.60
2019-04-11T19:46:41.381Z,10.88
2019-04-11T19:48:44.950Z,10.60
2019-04-11T19:52:51.346Z,10.85
2019-04-11T19:57:03.774Z,13.13
2019-04-11T19:59:07.329Z,11.95
2019-04-11T20:03:13.958Z,10.43
2019-04-11T20:05:17.606Z,9.98
2019-04-11T20:07:21.183Z,10.28
2019-04-11T20:09:24.904Z,12.03
2019-04-11T20:11:29.372Z,20.57
2019-04-11T20:13:33.613Z,23.10
2019-04-11T20:15:41.767Z,16.85
2019-04-11T20:17:44.612Z,12.50
2019-04-11T20:19:47.733Z,17.15
2019-04-11T20:23:54.157Z,11.15
2019-04-11T20:25:57.734Z,11.97
2019-04-11T20:30:06.229Z,12.07
2019-04-11T20:32:09.885Z,11.40
2019-04-11T20:34:13.598Z,12.30
2019-04-11T20:36:17.260Z,11.33
2019-04-11T20:38:20.766Z,10.48
2019-04-11T20:40:24.382Z,11.15
2019-04-11T20:42:28.067Z,11.12
2019-04-11T20:44:34.639Z,11.68
2019-04-11T20:46:38.358Z,12.55
2019-04-11T20:48:41.960Z,11.00
2019-04-11T20:50:45.560Z,11.55
2019-04-11T20:52:50.602Z,12.18
2019-04-11T20:54:54.204Z,12.37
2019-04-11T20:56:57.782Z,12.80
2019-04-11T21:01:04.867Z,11.97
2019-04-11T21:03:08.471Z,12.05
2019-04-11T21:05:12.145Z,11.63
2019-04-11T21:07:15.757Z,12.23
2019-04-11T21:09:19.325Z,12.60
2019-04-11T21:11:22.960Z,13.03
2019-04-11T21:13:26.534Z,13.45
2019-04-11T21:15:30.109Z,13.28
2019-04-11T21:19:36.504Z,12.33
2019-04-11T21:21:40.087Z,14.18
2019-04-11T21:25:46.471Z,12.33
2019-04-11T21:27:50.103Z,11.75
2019-04-11T21:29:53.678Z,13.22
2019-04-11T21:32:00.856Z,13.05
2019-04-11T21:34:02.981Z,12.37
2019-04-11T21:36:06.827Z,12.63
2019-04-11T21:38:10.419Z,11.75
2019-04-11T21:40:14.200Z,12.80
2019-04-11T21:42:17.766Z,12.40
2019-04-11T21:44:21.489Z,12.80
2019-04-11T21:46:25.068Z,12.73
2019-04-11T21:48:28.711Z,13.05
2019-04-11T21:50:32.322Z,12.47
2019-04-11T21:52:35.955Z,13.00
2019-04-11T21:54:39.547Z,12.50
2019-04-11T21:56:43.180Z,12.90
2019-04-11T21:58:49.931Z,12.18
2019-04-11T22:01:01.162Z,12.55
2019-04-11T22:03:06.657Z,13.88
2019-04-11T22:05:10.675Z,13.88
2019-04-11T22:07:14.449Z,12.60
2019-04-11T22:09:18.433Z,13.35
2019-04-11T22:11:22.086Z,14.18
2019-04-11T22:13:25.757Z,13.00
2019-04-11T22:15:29.331Z,12.80
2019-04-11T22:19:35.793Z,12.55
2019-04-11T22:21:39.353Z,13.05
2019-04-11T22:25:47.401Z,13.20
2019-04-11T22:27:53.457Z,13.50
2019-04-11T22:29:56.233Z,13.32
2019-04-11T22:31:59.830Z,13.83
2019-04-11T22:34:21.541Z,12.90
2019-04-11T22:36:25.371Z,13.58
2019-04-11T22:38:31.064Z,14.10
2019-04-11T22:40:34.236Z,13.22
2019-04-11T22:42:37.819Z,16.65
2019-04-11T22:44:41.383Z,16.37
2019-04-11T22:48:47.791Z,13.20
2019-04-11T22:50:51.359Z,13.20
2019-04-11T22:52:54.956Z,14.33
2019-04-11T22:54:58.550Z,13.75
2019-04-11T22:57:02.248Z,12.60
2019-04-11T22:59:05.916Z,12.37
2019-04-11T23:01:09.551Z,12.35
2019-04-11T23:03:17.630Z,12.68
2019-04-11T23:05:21.453Z,12.33
2019-04-11T23:07:25.060Z,12.18
2019-04-11T23:09:28.619Z,12.45
2019-04-11T23:11:32.218Z,12.10
2019-04-11T23:13:36.000Z,11.73
2019-04-11T23:15:39.640Z,13.15
2019-04-11T23:17:43.935Z,12.30
2019-04-11T23:19:48.316Z,12.35
2019-04-11T23:21:51.899Z,12.78
2019-04-11T23:23:55.465Z,12.50
2019-04-11T23:25:59.062Z,12.15
2019-04-11T23:28:02.629Z,11.57
2019-04-11T23:30:08.275Z,11.83
2019-04-11T23:32:11.869Z,11.88
2019-04-11T23:34:15.570Z,13.03
2019-04-11T23:36:21.322Z,12.60
2019-04-11T23:38:24.593Z,12.18
2019-04-11T23:40:28.274Z,11.57
2019-04-11T23:42:32.009Z,12.50
2019-04-11T23:44:35.669Z,12.68
2019-04-11T23:46:39.338Z,11.43
2019-04-11T23:48:43.019Z,11.00
2019-04-11T23:50:46.613Z,11.90
2019-04-11T23:52:50.198Z,10.75
2019-04-11T23:54:53.797Z,10.80
2019-04-11T23:57:00.627Z,10.85
2019-04-11T23:59:02.733Z,11.28
